sensor_id;sensor_type;location;lat;lon;timestamp;pressure;altitude;pressure_sealevel;temperature;humidity
66524;BME280;53350;52.210;5.160;2023-03-25T00:00:47;100092.28;;;12.14;65.16
66524;BME280;53350;52.210;5.160;2023-03-25T00:03:14;100093.06;;;12.16;65.59
66524;BME280;53350;52.210;5.160;2023-03-25T00:05:43;100087.97;;;12.14;66.05
66524;BME280;53350;52.210;5.160;2023-03-25T00:08:09;100093.16;;;12.13;66.29
66524;BME280;53350;52.210;5.160;2023-03-25T00:10:36;100093.22;;;12.11;66.49
66524;BME280;53350;52.210;5.160;2023-03-25T00:13:02;100085.53;;;12.10;66.44
66524;BME280;53350;52.210;5.160;2023-03-25T00:15:30;100087.38;;;12.05;66.48
66524;BME280;53350;52.210;5.160;2023-03-25T00:17:58;100087.50;;;12.02;66.94
66524;BME280;53350;52.210;5.160;2023-03-25T00:20:24;100082.22;;;12.05;67.40
66524;BME280;53350;52.210;5.160;2023-03-25T00:22:53;100086.00;;;11.93;67.76
66524;BME280;53350;52.210;5.160;2023-03-25T00:25:20;100079.19;;;11.90;67.71
66524;BME280;53350;52.210;5.160;2023-03-25T00:27:47;100078.31;;;11.91;67.50
66524;BME280;53350;52.210;5.160;2023-03-25T00:30:16;100088.63;;;11.91;67.56
66524;BME280;53350;52.210;5.160;2023-03-25T00:32:43;100085.16;;;11.92;67.52
66524;BME280;53350;52.210;5.160;2023-03-25T00:35:13;100088.81;;;11.85;67.47
66524;BME280;53350;52.210;5.160;2023-03-25T00:37:43;100094.16;;;11.79;67.66
66524;BME280;53350;52.210;5.160;2023-03-25T00:40:13;100083.03;;;11.77;67.38
66524;BME280;53350;52.210;5.160;2023-03-25T00:42:40;100098.47;;;11.78;67.39
66524;BME280;53350;52.210;5.160;2023-03-25T00:45:14;100097.53;;;11.81;67.36
66524;BME280;53350;52.210;5.160;2023-03-25T00:47:41;100088.00;;;11.83;67.31
66524;BME280;53350;52.210;5.160;2023-03-25T00:50:08;100091.41;;;11.85;67.06
66524;BME280;53350;52.210;5.160;2023-03-25T00:52:35;100080.94;;;11.90;67.10
66524;BME280;53350;52.210;5.160;2023-03-25T00:55:02;100078.59;;;11.82;67.38
66524;BME280;53350;52.210;5.160;2023-03-25T00:57:30;100087.94;;;11.84;67.09
66524;BME280;53350;52.210;5.160;2023-03-25T00:59:57;100082.84;;;11.83;67.35
66524;BME280;53350;52.210;5.160;2023-03-25T01:02:23;100075.97;;;11.83;67.08
66524;BME280;53350;52.210;5.160;2023-03-25T01:04:50;100075.06;;;11.84;67.19
66524;BME280;53350;52.210;5.160;2023-03-25T01:07:17;100080.22;;;11.84;66.78
66524;BME280;53350;52.210;5.160;2023-03-25T01:09:44;100087.03;;;11.87;66.51
66524;BME280;53350;52.210;5.160;2023-03-25T01:12:11;100081.75;;;11.90;66.27
66524;BME280;53350;52.210;5.160;2023-03-25T01:14:39;100080.06;;;11.91;66.32
66524;BME280;53350;52.210;5.160;2023-03-25T01:17:06;100067.25;;;11.88;66.36
66524;BME280;53350;52.210;5.160;2023-03-25T01:19:32;100070.50;;;11.93;66.37
66524;BME280;53350;52.210;5.160;2023-03-25T01:21:59;100077.41;;;11.94;65.98
66524;BME280;53350;52.210;5.160;2023-03-25T01:24:25;100074.84;;;11.92;66.04
66524;BME280;53350;52.210;5.160;2023-03-25T01:26:52;100067.03;;;11.95;66.19
66524;BME280;53350;52.210;5.160;2023-03-25T01:29:19;100053.31;;;11.92;66.74
66524;BME280;53350;52.210;5.160;2023-03-25T01:31:48;100077.47;;;11.91;66.87
66524;BME280;53350;52.210;5.160;2023-03-25T01:34:15;100075.78;;;11.90;66.80
66524;BME280;53350;52.210;5.160;2023-03-25T01:36:41;100075.16;;;11.81;67.12
66524;BME280;53350;52.210;5.160;2023-03-25T01:39:11;100075.09;;;11.83;67.31
66524;BME280;53350;52.210;5.160;2023-03-25T01:41:42;100069.16;;;11.81;67.69
66524;BME280;53350;52.210;5.160;2023-03-25T01:47:15;100058.97;;;11.76;68.84
66524;BME280;53350;52.210;5.160;2023-03-25T01:49:44;100065.16;;;11.71;69.76
66524;BME280;53350;52.210;5.160;2023-03-25T01:52:13;100076.44;;;11.66;70.12
66524;BME280;53350;52.210;5.160;2023-03-25T01:54:41;100071.38;;;11.63;70.69
66524;BME280;53350;52.210;5.160;2023-03-25T01:57:12;100081.06;;;11.55;70.57
66524;BME280;53350;52.210;5.160;2023-03-25T01:59:41;100082.00;;;11.53;71.43
66524;BME280;53350;52.210;5.160;2023-03-25T02:02:09;100076.97;;;11.48;71.82
66524;BME280;53350;52.210;5.160;2023-03-25T02:04:47;100078.81;;;11.44;71.96
66524;BME280;53350;52.210;5.160;2023-03-25T02:07:23;100081.53;;;11.38;71.92
66524;BME280;53350;52.210;5.160;2023-03-25T02:09:55;100075.59;;;11.36;72.68
66524;BME280;53350;52.210;5.160;2023-03-25T02:12:23;100072.28;;;11.33;72.80
66524;BME280;53350;52.210;5.160;2023-03-25T02:14:49;100067.03;;;11.36;72.54
66524;BME280;53350;52.210;5.160;2023-03-25T02:17:22;100059.44;;;11.29;73.08
66524;BME280;53350;52.210;5.160;2023-03-25T02:20:10;100075.78;;;11.30;72.77
66524;BME280;53350;52.210;5.160;2023-03-25T02:23:08;100062.75;;;11.35;72.99
66524;BME280;53350;52.210;5.160;2023-03-25T02:25:50;100060.31;;;11.30;72.95
66524;BME280;53350;52.210;5.160;2023-03-25T02:28:26;100069.88;;;11.25;73.11
66524;BME280;53350;52.210;5.160;2023-03-25T02:34:36;100074.13;;;11.27;73.36
66524;BME280;53350;52.210;5.160;2023-03-25T02:40:08;100067.22;;;11.28;72.99
66524;BME280;53350;52.210;5.160;2023-03-25T02:42:47;100071.56;;;11.26;73.34
66524;BME280;53350;52.210;5.160;2023-03-25T02:45:17;100055.28;;;11.24;73.10
66524;BME280;53350;52.210;5.160;2023-03-25T02:47:48;100057.34;;;11.12;73.49
66524;BME280;53350;52.210;5.160;2023-03-25T02:50:19;100058.88;;;11.20;73.57
66524;BME280;53350;52.210;5.160;2023-03-25T02:52:48;100066.47;;;11.24;73.32
66524;BME280;53350;52.210;5.160;2023-03-25T02:55:19;100075.09;;;11.23;73.54
66524;BME280;53350;52.210;5.160;2023-03-25T02:57:49;100058.66;;;11.27;73.33
66524;BME280;53350;52.210;5.160;2023-03-25T03:00:19;100050.03;;;11.28;73.37
66524;BME280;53350;52.210;5.160;2023-03-25T03:02:51;100034.59;;;11.27;73.55
66524;BME280;53350;52.210;5.160;2023-03-25T03:05:25;100040.41;;;11.34;73.40
66524;BME280;53350;52.210;5.160;2023-03-25T03:07:58;100038.66;;;11.36;73.14
66524;BME280;53350;52.210;5.160;2023-03-25T03:10:35;100034.25;;;11.39;73.01
66524;BME280;53350;52.210;5.160;2023-03-25T03:13:11;100037.06;;;11.31;73.37
66524;BME280;53350;52.210;5.160;2023-03-25T03:15:52;100037.00;;;11.33;73.26
66524;BME280;53350;52.210;5.160;2023-03-25T03:18:27;100018.22;;;11.28;73.56
66524;BME280;53350;52.210;5.160;2023-03-25T03:21:08;100028.03;;;11.15;73.97
66524;BME280;53350;52.210;5.160;2023-03-25T03:23:43;100041.38;;;11.29;73.17
66524;BME280;53350;52.210;5.160;2023-03-25T03:26:17;100042.25;;;11.30;73.53
66524;BME280;53350;52.210;5.160;2023-03-25T03:28:48;100036.38;;;11.25;73.72
66524;BME280;53350;52.210;5.160;2023-03-25T03:31:23;100033.03;;;11.21;73.85
66524;BME280;53350;52.210;5.160;2023-03-25T03:33:54;100013.44;;;11.16;74.11
66524;BME280;53350;52.210;5.160;2023-03-25T03:36:25;100017.59;;;11.21;74.14
66524;BME280;53350;52.210;5.160;2023-03-25T03:38:59;100019.38;;;11.18;74.18
66524;BME280;53350;52.210;5.160;2023-03-25T03:41:30;100011.66;;;11.18;74.03
66524;BME280;53350;52.210;5.160;2023-03-25T03:44:02;100015.97;;;11.17;74.11
66524;BME280;53350;52.210;5.160;2023-03-25T03:46:32;100018.63;;;11.14;74.47
66524;BME280;53350;52.210;5.160;2023-03-25T03:49:03;100020.28;;;11.17;74.18
66524;BME280;53350;52.210;5.160;2023-03-25T03:51:35;100016.84;;;11.16;73.98
66524;BME280;53350;52.210;5.160;2023-03-25T03:54:04;100018.78;;;11.09;74.34
66524;BME280;53350;52.210;5.160;2023-03-25T03:56:38;100026.38;;;11.14;74.13
66524;BME280;53350;52.210;5.160;2023-03-25T03:59:14;100020.25;;;11.18;74.34
66524;BME280;53350;52.210;5.160;2023-03-25T04:01:44;100020.28;;;11.17;74.21
66524;BME280;53350;52.210;5.160;2023-03-25T04:04:14;100027.19;;;11.14;74.58
66524;BME280;53350;52.210;5.160;2023-03-25T04:06:44;100031.47;;;11.16;75.13
66524;BME280;53350;52.210;5.160;2023-03-25T04:09:18;100034.97;;;11.13;75.14
66524;BME280;53350;52.210;5.160;2023-03-25T04:11:55;100040.28;;;11.08;75.69
66524;BME280;53350;52.210;5.160;2023-03-25T04:14:24;100035.38;;;10.98;76.25
66524;BME280;53350;52.210;5.160;2023-03-25T04:16:51;100036.22;;;11.00;76.32
66524;BME280;53350;52.210;5.160;2023-03-25T04:19:18;100037.00;;;11.02;76.08
66524;BME280;53350;52.210;5.160;2023-03-25T04:21:45;100044.03;;;10.96;76.32
66524;BME280;53350;52.210;5.160;2023-03-25T04:24:13;100029.41;;;10.97;76.40
66524;BME280;53350;52.210;5.160;2023-03-25T04:26:40;100032.78;;;10.99;76.07
66524;BME280;53350;52.210;5.160;2023-03-25T04:29:08;100031.81;;;11.03;76.07
66524;BME280;53350;52.210;5.160;2023-03-25T04:31:35;100024.03;;;11.05;76.32
66524;BME280;53350;52.210;5.160;2023-03-25T04:34:10;100017.25;;;11.02;76.40
66524;BME280;53350;52.210;5.160;2023-03-25T04:36:38;100030.28;;;10.96;76.68
66524;BME280;53350;52.210;5.160;2023-03-25T04:39:07;100029.50;;;10.94;76.92
66524;BME280;53350;52.210;5.160;2023-03-25T04:41:34;100041.50;;;10.95;76.68
66524;BME280;53350;52.210;5.160;2023-03-25T04:44:00;100042.25;;;10.99;77.11
66524;BME280;53350;52.210;5.160;2023-03-25T04:46:28;100039.53;;;11.03;76.78
66524;BME280;53350;52.210;5.160;2023-03-25T04:48:55;100034.38;;;11.03;76.90
66524;BME280;53350;52.210;5.160;2023-03-25T04:51:22;100032.81;;;10.98;76.90
66524;BME280;53350;52.210;5.160;2023-03-25T04:53:48;100047.44;;;10.97;77.17
66524;BME280;53350;52.210;5.160;2023-03-25T04:56:17;100046.66;;;10.95;77.26
66524;BME280;53350;52.210;5.160;2023-03-25T04:58:44;100047.47;;;10.95;77.22
66524;BME280;53350;52.210;5.160;2023-03-25T05:01:19;100045.78;;;10.94;77.48
66524;BME280;53350;52.210;5.160;2023-03-25T05:03:48;100049.94;;;11.00;77.08
66524;BME280;53350;52.210;5.160;2023-03-25T05:06:15;100043.13;;;10.98;77.25
66524;BME280;53350;52.210;5.160;2023-03-25T05:08:42;100047.34;;;11.00;77.46
66524;BME280;53350;52.210;5.160;2023-03-25T05:11:08;100047.22;;;11.05;77.46
66524;BME280;53350;52.210;5.160;2023-03-25T05:13:35;100044.56;;;11.08;77.07
66524;BME280;53350;52.210;5.160;2023-03-25T05:16:01;100044.59;;;11.06;76.76
66524;BME280;53350;52.210;5.160;2023-03-25T05:18:28;100048.13;;;11.04;76.72
66524;BME280;53350;52.210;5.160;2023-03-25T05:20:56;100056.66;;;11.06;76.49
66524;BME280;53350;52.210;5.160;2023-03-25T05:23:25;100048.19;;;11.01;76.46
66524;BME280;53350;52.210;5.160;2023-03-25T05:25:51;100052.59;;;10.97;76.07
66524;BME280;53350;52.210;5.160;2023-03-25T05:28:18;100049.00;;;11.03;75.78
66524;BME280;53350;52.210;5.160;2023-03-25T05:30:45;100053.31;;;11.02;75.29
66524;BME280;53350;52.210;5.160;2023-03-25T05:33:14;100057.56;;;11.03;74.79
66524;BME280;53350;52.210;5.160;2023-03-25T05:35:43;100063.59;;;11.04;74.79
66524;BME280;53350;52.210;5.160;2023-03-25T05:38:11;100074.69;;;11.06;74.11
66524;BME280;53350;52.210;5.160;2023-03-25T05:40:40;100057.44;;;11.09;73.02
66524;BME280;53350;52.210;5.160;2023-03-25T05:43:07;100055.88;;;11.04;73.43
66524;BME280;53350;52.210;5.160;2023-03-25T05:45:33;100066.22;;;11.02;73.43
66524;BME280;53350;52.210;5.160;2023-03-25T05:48:01;100064.44;;;11.04;73.33
66524;BME280;53350;52.210;5.160;2023-03-25T05:50:27;100060.19;;;11.02;73.33
66524;BME280;53350;52.210;5.160;2023-03-25T05:52:54;100067.78;;;11.06;72.97
66524;BME280;53350;52.210;5.160;2023-03-25T05:55:23;100073.97;;;11.01;73.27
66524;BME280;53350;52.210;5.160;2023-03-25T05:57:49;100073.06;;;11.02;72.68
66524;BME280;53350;52.210;5.160;2023-03-25T06:00:17;100080.03;;;11.00;72.84
66524;BME280;53350;52.210;5.160;2023-03-25T06:02:45;100076.44;;;11.05;72.37
66524;BME280;53350;52.210;5.160;2023-03-25T06:05:14;100077.47;;;10.98;72.56
66524;BME280;53350;52.210;5.160;2023-03-25T06:07:41;100081.63;;;11.04;72.52
66524;BME280;53350;52.210;5.160;2023-03-25T06:10:09;100075.69;;;11.00;72.40
66524;BME280;53350;52.210;5.160;2023-03-25T06:12:37;100097.84;;;11.07;72.24
66524;BME280;53350;52.210;5.160;2023-03-25T06:15:05;100084.88;;;11.10;72.15
66524;BME280;53350;52.210;5.160;2023-03-25T06:17:31;100069.31;;;11.13;72.12
66524;BME280;53350;52.210;5.160;2023-03-25T06:19:59;100085.69;;;11.12;72.39
66524;BME280;53350;52.210;5.160;2023-03-25T06:22:29;100083.22;;;11.09;72.78
66524;BME280;53350;52.210;5.160;2023-03-25T06:24:58;100077.97;;;11.12;73.10
66524;BME280;53350;52.210;5.160;2023-03-25T06:27:25;100078.00;;;11.11;73.53
66524;BME280;53350;52.210;5.160;2023-03-25T06:29:53;100083.94;;;11.13;73.84
66524;BME280;53350;52.210;5.160;2023-03-25T06:32:20;100095.34;;;11.04;73.92
66524;BME280;53350;52.210;5.160;2023-03-25T06:34:46;100097.22;;;10.98;74.57
66524;BME280;53350;52.210;5.160;2023-03-25T06:37:13;100098.22;;;10.93;75.17
66524;BME280;53350;52.210;5.160;2023-03-25T06:39:39;100104.25;;;10.92;75.36
66524;BME280;53350;52.210;5.160;2023-03-25T06:42:06;100081.22;;;10.86;75.77
66524;BME280;53350;52.210;5.160;2023-03-25T06:44:32;100094.00;;;10.91;75.45
66524;BME280;53350;52.210;5.160;2023-03-25T06:47:00;100101.81;;;10.88;75.64
66524;BME280;53350;52.210;5.160;2023-03-25T06:49:29;100100.94;;;10.87;75.45
66524;BME280;53350;52.210;5.160;2023-03-25T06:51:56;100095.75;;;10.89;75.80
66524;BME280;53350;52.210;5.160;2023-03-25T06:54:23;100092.28;;;10.90;75.77
66524;BME280;53350;52.210;5.160;2023-03-25T06:56:49;100102.63;;;10.88;75.89
66524;BME280;53350;52.210;5.160;2023-03-25T06:59:15;100107.00;;;10.86;75.81
66524;BME280;53350;52.210;5.160;2023-03-25T07:01:42;100094.94;;;10.87;75.83
66524;BME280;53350;52.210;5.160;2023-03-25T07:04:10;100102.50;;;10.93;75.15
66524;BME280;53350;52.210;5.160;2023-03-25T07:06:36;100104.25;;;10.92;75.05
66524;BME280;53350;52.210;5.160;2023-03-25T07:09:03;100105.84;;;10.98;74.80
66524;BME280;53350;52.210;5.160;2023-03-25T07:11:29;100109.19;;;11.00;74.73
66524;BME280;53350;52.210;5.160;2023-03-25T07:13:57;100108.28;;;11.03;74.72
66524;BME280;53350;52.210;5.160;2023-03-25T07:16:24;100104.69;;;11.08;74.23
66524;BME280;53350;52.210;5.160;2023-03-25T07:18:51;100101.25;;;11.09;73.76
66524;BME280;53350;52.210;5.160;2023-03-25T07:21:20;100102.84;;;11.13;73.38
66524;BME280;53350;52.210;5.160;2023-03-25T07:23:46;100111.34;;;11.17;73.28
66524;BME280;53350;52.210;5.160;2023-03-25T07:26:13;100108.69;;;11.20;72.86
66524;BME280;53350;52.210;5.160;2023-03-25T07:28:40;100103.53;;;11.20;73.08
66524;BME280;53350;52.210;5.160;2023-03-25T07:31:08;100116.38;;;11.22;73.13
66524;BME280;53350;52.210;5.160;2023-03-25T07:33:35;100107.53;;;11.30;72.31
66524;BME280;53350;52.210;5.160;2023-03-25T07:36:02;100106.56;;;11.35;71.97
66524;BME280;53350;52.210;5.160;2023-03-25T07:38:30;100104.75;;;11.38;72.15
66524;BME280;53350;52.210;5.160;2023-03-25T07:40:56;100095.13;;;11.45;72.01
66524;BME280;53350;52.210;5.160;2023-03-25T07:43:23;100118.09;;;11.53;71.08
66524;BME280;53350;52.210;5.160;2023-03-25T07:45:49;100106.91;;;11.54;71.14
66524;BME280;53350;52.210;5.160;2023-03-25T07:48:16;100113.72;;;11.56;70.79
66524;BME280;53350;52.210;5.160;2023-03-25T07:50:42;100118.88;;;11.56;70.73
66524;BME280;53350;52.210;5.160;2023-03-25T07:53:10;100118.00;;;11.57;70.75
66524;BME280;53350;52.210;5.160;2023-03-25T07:55:38;100118.03;;;11.56;70.51
66524;BME280;53350;52.210;5.160;2023-03-25T07:58:04;100125.66;;;11.60;70.07
66524;BME280;53350;52.210;5.160;2023-03-25T08:00:31;100113.50;;;11.64;69.94
66524;BME280;53350;52.210;5.160;2023-03-25T08:02:57;100129.00;;;11.62;69.56
66524;BME280;53350;52.210;5.160;2023-03-25T08:05:23;100134.19;;;11.62;70.09
66524;BME280;53350;52.210;5.160;2023-03-25T08:07:50;100117.00;;;11.61;69.83
66524;BME280;53350;52.210;5.160;2023-03-25T08:10:17;100135.88;;;11.63;69.71
66524;BME280;53350;52.210;5.160;2023-03-25T08:12:45;100118.41;;;11.73;68.89
66524;BME280;53350;52.210;5.160;2023-03-25T08:15:12;100129.44;;;11.78;68.78
66524;BME280;53350;52.210;5.160;2023-03-25T08:17:41;100154.47;;;11.75;69.44
66524;BME280;53350;52.210;5.160;2023-03-25T08:20:08;100136.38;;;11.76;70.63
66524;BME280;53350;52.210;5.160;2023-03-25T08:22:35;100134.81;;;11.71;71.33
66524;BME280;53350;52.210;5.160;2023-03-25T08:25:02;100145.22;;;11.68;71.57
66524;BME280;53350;52.210;5.160;2023-03-25T08:27:29;100142.84;;;11.60;71.73
66524;BME280;53350;52.210;5.160;2023-03-25T08:29:56;100146.97;;;11.65;71.36
66524;BME280;53350;52.210;5.160;2023-03-25T08:32:25;100139.28;;;11.64;71.69
66524;BME280;53350;52.210;5.160;2023-03-25T08:34:52;100147.91;;;11.64;71.91
66524;BME280;53350;52.210;5.160;2023-03-25T08:37:19;100146.91;;;11.69;72.00
66524;BME280;53350;52.210;5.160;2023-03-25T08:39:45;100148.59;;;11.70;71.89
66524;BME280;53350;52.210;5.160;2023-03-25T08:42:15;100133.88;;;11.73;71.95
66524;BME280;53350;52.210;5.160;2023-03-25T08:44:42;100128.72;;;11.73;72.02
66524;BME280;53350;52.210;5.160;2023-03-25T08:47:10;100148.63;;;11.68;72.34
66524;BME280;53350;52.210;5.160;2023-03-25T08:49:36;100148.56;;;11.71;72.50
66524;BME280;53350;52.210;5.160;2023-03-25T08:52:03;100138.03;;;11.77;72.46
66524;BME280;53350;52.210;5.160;2023-03-25T08:54:32;100154.31;;;11.81;72.46
66524;BME280;53350;52.210;5.160;2023-03-25T08:56:59;100150.69;;;11.87;72.37
66524;BME280;53350;52.210;5.160;2023-03-25T08:59:25;100149.47;;;12.00;70.52
66524;BME280;53350;52.210;5.160;2023-03-25T09:01:52;100153.09;;;11.94;70.91
66524;BME280;53350;52.210;5.160;2023-03-25T09:04:20;100154.66;;;12.00;70.55
66524;BME280;53350;52.210;5.160;2023-03-25T09:06:46;100151.78;;;12.09;70.51
66524;BME280;53350;52.210;5.160;2023-03-25T09:09:13;100148.09;;;12.18;69.83
66524;BME280;53350;52.210;5.160;2023-03-25T09:11:40;100149.63;;;12.24;69.53
66524;BME280;53350;52.210;5.160;2023-03-25T09:14:06;100153.97;;;12.23;69.48
66524;BME280;53350;52.210;5.160;2023-03-25T09:16:33;100156.41;;;12.28;69.61
66524;BME280;53350;52.210;5.160;2023-03-25T09:18:59;100151.94;;;12.33;69.62
66524;BME280;53350;52.210;5.160;2023-03-25T09:21:27;100152.31;;;12.49;68.64
66524;BME280;53350;52.210;5.160;2023-03-25T09:23:54;100151.34;;;12.53;68.42
66524;BME280;53350;52.210;5.160;2023-03-25T09:26:20;100150.94;;;12.65;68.74
66524;BME280;53350;52.210;5.160;2023-03-25T09:28:47;100158.47;;;12.73;68.60
66524;BME280;53350;52.210;5.160;2023-03-25T09:31:13;100168.47;;;12.82;67.86
66524;BME280;53350;52.210;5.160;2023-03-25T09:33:40;100171.03;;;12.84;67.24
66524;BME280;53350;52.210;5.160;2023-03-25T09:36:06;100170.31;;;12.79;67.74
66524;BME280;53350;52.210;5.160;2023-03-25T09:38:34;100166.94;;;12.77;68.11
66524;BME280;53350;52.210;5.160;2023-03-25T09:41:11;100166.84;;;12.80;67.32
66524;BME280;53350;52.210;5.160;2023-03-25T09:43:50;100175.41;;;12.82;67.68
66524;BME280;53350;52.210;5.160;2023-03-25T09:46:22;100163.97;;;12.89;66.76
66524;BME280;53350;52.210;5.160;2023-03-25T09:48:50;100170.75;;;12.92;66.24
66524;BME280;53350;52.210;5.160;2023-03-25T09:51:21;100174.16;;;12.94;66.29
66524;BME280;53350;52.210;5.160;2023-03-25T09:53:55;100153.56;;;12.91;66.16
66524;BME280;53350;52.210;5.160;2023-03-25T09:56:26;100173.28;;;12.93;65.84
66524;BME280;53350;52.210;5.160;2023-03-25T09:58:55;100178.50;;;12.92;66.25
66524;BME280;53350;52.210;5.160;2023-03-25T10:01:35;100168.13;;;12.93;65.95
66524;BME280;53350;52.210;5.160;2023-03-25T10:04:22;100182.91;;;12.90;65.73
66524;BME280;53350;52.210;5.160;2023-03-25T10:06:59;100183.50;;;12.98;65.71
66524;BME280;53350;52.210;5.160;2023-03-25T10:09:42;100186.81;;;13.01;64.89
66524;BME280;53350;52.210;5.160;2023-03-25T10:12:25;100181.69;;;13.00;65.42
66524;BME280;53350;52.210;5.160;2023-03-25T10:15:02;100185.22;;;12.97;65.54
66524;BME280;53350;52.210;5.160;2023-03-25T10:17:40;100188.47;;;13.04;65.63
66524;BME280;53350;52.210;5.160;2023-03-25T10:20:15;100200.41;;;13.08;65.29
66524;BME280;53350;52.210;5.160;2023-03-25T10:22:57;100195.34;;;13.05;65.21
66524;BME280;53350;52.210;5.160;2023-03-25T10:25:31;100184.72;;;13.13;64.31
66524;BME280;53350;52.210;5.160;2023-03-25T10:27:59;100183.78;;;13.15;64.27
66524;BME280;53350;52.210;5.160;2023-03-25T10:30:31;100188.00;;;13.18;63.47
66524;BME280;53350;52.210;5.160;2023-03-25T10:33:02;100201.66;;;13.21;63.39
66524;BME280;53350;52.210;5.160;2023-03-25T10:35:35;100191.59;;;13.14;63.39
66524;BME280;53350;52.210;5.160;2023-03-25T10:38:06;100201.72;;;13.20;62.89
66524;BME280;53350;52.210;5.160;2023-03-25T10:40:41;100204.25;;;13.21;63.55
66524;BME280;53350;52.210;5.160;2023-03-25T10:43:14;100202.22;;;13.31;62.63
66524;BME280;53350;52.210;5.160;2023-03-25T10:45:44;100206.56;;;13.29;62.39
66524;BME280;53350;52.210;5.160;2023-03-25T10:48:13;100205.84;;;13.26;63.36
66524;BME280;53350;52.210;5.160;2023-03-25T10:50:42;100208.22;;;13.32;63.23
66524;BME280;53350;52.210;5.160;2023-03-25T10:53:18;100216.81;;;13.32;62.90
66524;BME280;53350;52.210;5.160;2023-03-25T10:55:48;100186.44;;;13.39;62.90
66524;BME280;53350;52.210;5.160;2023-03-25T10:58:17;100194.00;;;13.45;62.62
66524;BME280;53350;52.210;5.160;2023-03-25T11:00:44;100215.44;;;13.49;62.33
66524;BME280;53350;52.210;5.160;2023-03-25T11:03:15;100184.34;;;13.50;62.31
66524;BME280;53350;52.210;5.160;2023-03-25T11:05:44;100212.47;;;13.60;61.37
66524;BME280;53350;52.210;5.160;2023-03-25T11:08:13;100223.81;;;13.55;61.06
66524;BME280;53350;52.210;5.160;2023-03-25T11:10:47;100212.91;;;13.47;61.16
66524;BME280;53350;52.210;5.160;2023-03-25T11:13:16;100242.44;;;13.42;62.00
66524;BME280;53350;52.210;5.160;2023-03-25T11:15:46;100214.75;;;13.44;61.99
66524;BME280;53350;52.210;5.160;2023-03-25T11:18:17;100221.72;;;13.42;62.04
66524;BME280;53350;52.210;5.160;2023-03-25T11:20:47;100218.94;;;13.48;61.67
66524;BME280;53350;52.210;5.160;2023-03-25T11:23:21;100220.63;;;13.49;61.47
66524;BME280;53350;52.210;5.160;2023-03-25T11:25:52;100227.44;;;13.51;62.00
66524;BME280;53350;52.210;5.160;2023-03-25T11:28:23;100231.50;;;13.59;61.63
66524;BME280;53350;52.210;5.160;2023-03-25T11:31:22;100224.47;;;13.62;61.23
66524;BME280;53350;52.210;5.160;2023-03-25T11:34:03;100221.34;;;13.78;60.98
66524;BME280;53350;52.210;5.160;2023-03-25T11:36:31;100198.72;;;13.83;60.88
66524;BME280;53350;52.210;5.160;2023-03-25T11:39:00;100225.13;;;13.93;60.93
66524;BME280;53350;52.210;5.160;2023-03-25T11:41:31;100223.28;;;13.96;60.71
66524;BME280;53350;52.210;5.160;2023-03-25T11:43:59;100221.19;;;14.06;60.48
66524;BME280;53350;52.210;5.160;2023-03-25T11:46:26;100227.94;;;14.10;60.22
66524;BME280;53350;52.210;5.160;2023-03-25T11:48:53;100230.41;;;14.13;58.60
66524;BME280;53350;52.210;5.160;2023-03-25T11:51:21;100228.94;;;14.06;60.13
66524;BME280;53350;52.210;5.160;2023-03-25T11:53:54;100224.78;;;14.02;59.05
66524;BME280;53350;52.210;5.160;2023-03-25T11:56:23;100219.13;;;13.92;59.49
66524;BME280;53350;52.210;5.160;2023-03-25T11:58:56;100211.66;;;13.83;59.20
66524;BME280;53350;52.210;5.160;2023-03-25T12:01:24;100233.66;;;13.71;59.85
66524;BME280;53350;52.210;5.160;2023-03-25T12:04:05;100228.59;;;13.68;61.77
66524;BME280;53350;52.210;5.160;2023-03-25T12:06:32;100241.91;;;13.57;62.73
66524;BME280;53350;52.210;5.160;2023-03-25T12:08:59;100235.16;;;13.53;62.43
66524;BME280;53350;52.210;5.160;2023-03-25T12:11:28;100216.22;;;13.51;62.15
66524;BME280;53350;52.210;5.160;2023-03-25T12:14:15;100240.38;;;13.51;62.44
66524;BME280;53350;52.210;5.160;2023-03-25T12:16:49;100228.22;;;13.53;61.93
66524;BME280;53350;52.210;5.160;2023-03-25T12:19:23;100229.66;;;13.62;61.13
66524;BME280;53350;52.210;5.160;2023-03-25T12:22:06;100225.06;;;13.70;61.56
66524;BME280;53350;52.210;5.160;2023-03-25T12:24:46;100222.19;;;13.78;60.31
66524;BME280;53350;52.210;5.160;2023-03-25T12:27:24;100228.66;;;13.90;60.04
66524;BME280;53350;52.210;5.160;2023-03-25T12:29:55;100235.47;;;13.93;59.71
66524;BME280;53350;52.210;5.160;2023-03-25T12:32:32;100217.81;;;13.80;59.71
66524;BME280;53350;52.210;5.160;2023-03-25T12:35:13;100220.59;;;13.74;59.50
66524;BME280;53350;52.210;5.160;2023-03-25T12:37:55;100236.06;;;13.76;59.59
66524;BME280;53350;52.210;5.160;2023-03-25T12:40:40;100228.31;;;13.76;60.38
66524;BME280;53350;52.210;5.160;2023-03-25T12:43:14;100231.31;;;13.88;60.21
66524;BME280;53350;52.210;5.160;2023-03-25T12:46:01;100214.34;;;14.05;58.83
66524;BME280;53350;52.210;5.160;2023-03-25T12:48:45;100210.63;;;14.12;58.57
66524;BME280;53350;52.210;5.160;2023-03-25T12:51:20;100207.22;;;14.10;58.50
66524;BME280;53350;52.210;5.160;2023-03-25T12:53:55;100232.44;;;14.29;58.10
66524;BME280;53350;52.210;5.160;2023-03-25T12:56:39;100223.53;;;14.36;57.72
66524;BME280;53350;52.210;5.160;2023-03-25T12:59:42;100226.78;;;14.41;56.85
66524;BME280;53350;52.210;5.160;2023-03-25T13:02:21;100220.47;;;14.48;57.93
66524;BME280;53350;52.210;5.160;2023-03-25T13:05:01;100214.03;;;14.58;56.37
66524;BME280;53350;52.210;5.160;2023-03-25T13:07:34;100232.28;;;14.55;57.12
66524;BME280;53350;52.210;5.160;2023-03-25T13:10:05;100234.88;;;14.55;56.74
66524;BME280;53350;52.210;5.160;2023-03-25T13:12:36;100228.09;;;14.53;57.16
66524;BME280;53350;52.210;5.160;2023-03-25T13:15:10;100246.94;;;14.56;56.90